Time,TemperatureF,DewpointF,PressureIn,WindDirection,WindDirectionDegrees,WindSpeedMPH,WindSpeedGustMPH,Humidity,HourlyPrecipIn,Conditions,Clouds,dailyrainin,SoftwareType,DateUTC
2013-01-25 00:00:00,13.1,7.1,30.57,ESE,120,1.0,5.0,76,0.00,,OVC OVC///CB,0.00,WUHU216DAVISVP2,2013-01-25 05:00:00,
2013-01-25 00:01:00,13.1,7.1,30.57,SE,143,1.0,5.0,76,0.00,,OVC OVC///CB,0.00,WUHU216DAVISVP2,2013-01-25 05:01:00,
2013-01-25 00:03:00,13.1,7.1,30.57,ESE,118,0.0,5.0,76,0.00,,OVC OVC///CB,0.00,WUHU216DAVISVP2,2013-01-25 05:03:00,
2013-01-25 00:08:00,13.2,7.5,30.57,ESE,120,1.0,4.0,77,0.00,,OVC OVC///CB,0.00,WUHU216DAVISVP2,2013-01-25 05:08:00,
2013-01-25 00:13:00,13.1,7.1,30.57,ESE,117,2.0,3.0,76,0.00,,OVC OVC///CB,0.00,WUHU216DAVISVP2,2013-01-25 05:13:00,
2013-01-25 00:18:00,13.0,7.0,30.57,SE,127,1.0,3.0,76,0.00,,OVC OVC///CB,0.00,WUHU216DAVISVP2,2013-01-25 05:18:00,
2013-01-25 00:23:00,13.1,7.1,30.57,ESE,108,1.0,3.0,76,0.00,,OVC OVC///CB,0.00,WUHU216DAVISVP2,2013-01-25 05:23:00,
2013-01-25 00:28:00,13.1,7.1,30.57,ESE,120,0.0,3.0,76,0.00,,OVC OVC///CB,0.00,WUHU216DAVISVP2,2013-01-25 05:28:00,
2013-01-25 00:33:00,13.1,7.1,30.56,ESE,110,0.0,2.0,76,0.00,,OVC OVC///CB,0.00,WUHU216DAVISVP2,2013-01-25 05:33:00,
2013-01-25 00:38:00,13.1,7.1,30.56,SE,142,0.0,2.0,76,0.00,,OVC OVC///CB,0.00,WUHU216DAVISVP2,2013-01-25 05:38:00,
2013-01-25 00:43:00,13.2,7.5,30.56,East,101,0.0,2.0,77,0.00,,OVC OVC///CB,0.00,WUHU216DAVISVP2,2013-01-25 05:43:00,
2013-01-25 00:48:00,13.2,7.2,30.55,ESE,117,1.0,3.0,76,0.00,,OVC OVC///CB,0.00,WUHU216DAVISVP2,2013-01-25 05:48:00,
2013-01-25 00:53:00,13.3,7.3,30.55,East,98,2.0,4.0,76,0.00,,OVC OVC///CB,0.00,WUHU216DAVISVP2,2013-01-25 05:53:00,
2013-01-25 00:58:00,13.3,7.3,30.55,ESE,108,2.0,4.0,76,0.00,,OVC OVC///CB,0.00,WUHU216DAVISVP2,2013-01-25 05:58:00,
2013-01-25 01:03:00,13.2,7.2,30.54,ESE,103,1.0,4.0,76,0.00,,OVC OVC///CB,0.00,WUHU216DAVISVP2,2013-01-25 06:03:00,
2013-01-25 01:08:00,13.3,7.3,30.54,East,89,1.0,4.0,76,0.00,,OVC OVC///CB,0.00,WUHU216DAVISVP2,2013-01-25 06:08:00,
2013-01-25 01:13:00,13.3,7.6,30.53,ESE,108,2.0,3.0,77,0.00,,OVC OVC///CB,0.00,WUHU216DAVISVP2,2013-01-25 06:13:00,
2013-01-25 01:18:00,13.3,7.3,30.53,ESE,122,0.0,3.0,76,0.00,,OVC OVC///CB,0.00,WUHU216DAVISVP2,2013-01-25 06:18:00,
2013-01-25 01:23:00,13.4,8.2,30.53,ESE,119,0.0,3.0,79,0.00,,OVC OVC///CB,0.00,WUHU216DAVISVP2,2013-01-25 06:23:00,
2013-01-25 01:28:00,13.4,8.2,30.53,ESE,121,0.0,3.0,79,0.00,,OVC OVC///CB,0.00,WUHU216DAVISVP2,2013-01-25 06:28:00,
2013-01-25 01:33:00,13.3,7.6,30.53,ESE,117,0.0,3.0,77,0.00,,OVC OVC///CB,0.00,WUHU216DAVISVP2,2013-01-25 06:33:00,
2013-01-25 01:38:00,13.2,7.5,30.54,SSE,153,0.0,2.0,77,0.00,,OVC OVC///CB,0.00,WUHU216DAVISVP2,2013-01-25 06:38:00,
2013-01-25 01:43:00,13.2,7.5,30.54,SE,132,0.0,3.0,77,0.00,,OVC OVC///CB,0.00,WUHU216DAVISVP2,2013-01-25 06:43:00,
2013-01-25 01:48:00,13.1,7.1,30.53,SSE,150,0.0,3.0,76,0.00,,OVC OVC///CB,0.00,WUHU216DAVISVP2,2013-01-25 06:48:00,
2013-01-25 01:53:00,13.1,7.1,30.53,East,98,1.0,3.0,76,0.00,,OVC OVC///CB,0.00,WUHU216DAVISVP2,2013-01-25 06:53:00,
2013-01-25 01:58:00,13.2,7.7,30.53,ESE,113,0.0,3.0,78,0.00,,OVC OVC///CB,0.00,WUHU216DAVISVP2,2013-01-25 06:58:00,
2013-01-25 02:03:00,13.2,7.7,30.53,ESE,108,2.0,3.0,78,0.00,,OVC OVC///CB,0.00,WUHU216DAVISVP2,2013-01-25 07:03:00,
2013-01-25 02:08:00,13.2,7.7,30.53,SSE,159,0.0,3.0,78,0.00,,OVC OVC///CB,0.00,WUHU216DAVISVP2,2013-01-25 07:08:00,
2013-01-25 02:13:00,13.2,7.5,30.53,ESE,116,1.0,2.0,77,0.00,,OVC OVC///CB,0.00,WUHU216DAVISVP2,2013-01-25 07:13:00,
2013-01-25 02:18:00,13.1,7.4,30.53,SSE,152,1.0,2.0,77,0.00,,OVC OVC///CB,0.00,WUHU216DAVISVP2,2013-01-25 07:18:00,
2013-01-25 02:23:00,13.1,7.4,30.52,ESE,108,1.0,2.0,77,0.00,,OVC OVC///CB,0.00,WUHU216DAVISVP2,2013-01-25 07:23:00,
2013-01-25 02:28:00,13.1,7.4,30.52,ESE,120,1.0,2.0,77,0.00,,OVC OVC///CB,0.00,WUHU216DAVISVP2,2013-01-25 07:28:00,
2013-01-25 02:33:00,13.1,7.4,30.53,SSE,160,0.0,2.0,77,0.00,,OVC OVC///CB,0.00,WUHU216DAVISVP2,2013-01-25 07:33:00,
2013-01-25 02:38:00,13.1,7.4,30.53,SE,132,0.0,2.0,77,0.00,,OVC OVC///CB,0.00,WUHU216DAVISVP2,2013-01-25 07:38:00,
2013-01-25 02:43:00,13.2,7.7,30.51,ESE,117,2.0,4.0,78,0.00,,OVC OVC///CB,0.00,WUHU216DAVISVP2,2013-01-25 07:43:00,
2013-01-25 02:48:00,13.2,7.5,30.52,East,96,0.0,4.0,77,0.00,,OVC OVC///CB,0.00,WUHU216DAVISVP2,2013-01-25 07:48:00,
2013-01-25 02:53:00,13.2,7.5,30.52,SE,142,1.0,4.0,77,0.00,,OVC OVC///CB,0.00,WUHU216DAVISVP2,2013-01-25 07:53:00,
2013-01-25 02:58:00,13.2,7.5,30.52,SE,134,0.0,4.0,77,0.00,,OVC OVC///CB,0.00,WUHU216DAVISVP2,2013-01-25 07:58:00,
2013-01-25 03:03:00,13.2,7.5,30.51,SE,145,1.0,3.0,77,0.00,,OVC OVC///CB,0.00,WUHU216DAVISVP2,2013-01-25 08:03:00,
2013-01-25 03:08:00,13.3,7.6,30.51,SE,128,1.0,3.0,77,0.00,,OVC OVC///CB,0.00,WUHU216DAVISVP2,2013-01-25 08:08:00,
2013-01-25 03:13:00,13.3,7.6,30.51,SE,139,1.0,3.0,77,0.00,,OVC OVC///CB,0.00,WUHU216DAVISVP2,2013-01-25 08:13:00,
2013-01-25 03:18:00,13.3,7.6,30.51,South,172,0.0,3.0,77,0.00,,OVC OVC///CB,0.00,WUHU216DAVISVP2,2013-01-25 08:18:00,
2013-01-25 03:23:00,13.3,7.3,30.51,SE,143,1.0,3.0,76,0.00,,OVC OVC///CB,0.00,WUHU216DAVISVP2,2013-01-25 08:23:00,
2013-01-25 03:28:00,13.3,7.6,30.51,SSW,201,0.0,3.0,77,0.00,,OVC OVC///CB,0.00,WUHU216DAVISVP2,2013-01-25 08:28:00,
2013-01-25 03:33:00,13.3,7.6,30.51,SE,127,1.0,3.0,77,0.00,,OVC OVC///CB,0.00,WUHU216DAVISVP2,2013-01-25 08:33:00,
2013-01-25 03:38:00,13.3,7.6,30.50,SSE,158,2.0,3.0,77,0.00,,OVC OVC///CB,0.00,WUHU216DAVISVP2,2013-01-25 08:38:00,
2013-01-25 03:43:00,13.3,7.3,30.50,SSE,152,2.0,3.0,76,0.00,,OVC OVC///CB,0.00,WUHU216DAVISVP2,2013-01-25 08:43:00,
2013-01-25 03:48:00,13.4,7.9,30.50,SE,140,0.0,3.0,78,0.00,,OVC OVC///CB,0.00,WUHU216DAVISVP2,2013-01-25 08:48:00,
2013-01-25 03:53:00,13.6,8.4,30.50,SE,139,0.0,3.0,79,0.00,,OVC OVC///CB,0.00,WUHU216DAVISVP2,2013-01-25 08:53:00,
2013-01-25 03:58:00,13.6,8.1,30.49,ESE,114,0.0,2.0,78,0.00,,OVC OVC///CB,0.00,WUHU216DAVISVP2,2013-01-25 08:58:00,
2013-01-25 04:03:00,13.6,7.9,30.48,SE,128,2.0,3.0,77,0.00,,OVC OVC///CB,0.00,WUHU216DAVISVP2,2013-01-25 09:03:00,
2013-01-25 04:08:00,13.5,7.8,30.48,SSE,162,1.0,3.0,77,0.00,,OVC OVC///CB,0.00,WUHU216DAVISVP2,2013-01-25 09:08:00,
2013-01-25 04:13:00,13.5,7.5,30.48,SSE,153,2.0,4.0,76,0.00,,OVC OVC///CB,0.00,WUHU216DAVISVP2,2013-01-25 09:13:00,
2013-01-25 04:18:00,13.5,7.5,30.49,SSE,157,0.0,4.0,76,0.00,,OVC OVC///CB,0.00,WUHU216DAVISVP2,2013-01-25 09:18:00,
2013-01-25 04:23:00,13.6,7.9,30.49,SSW,207,0.0,4.0,77,0.00,,OVC OVC///CB,0.00,WUHU216DAVISVP2,2013-01-25 09:23:00,
2013-01-25 04:28:00,13.6,7.6,30.49,SSE,160,0.0,4.0,76,0.00,,OVC OVC///CB,0.00,WUHU216DAVISVP2,2013-01-25 09:28:00,
2013-01-25 04:33:00,13.6,7.9,30.49,South,184,2.0,4.0,77,0.00,,OVC OVC///CB,0.00,WUHU216DAVISVP2,2013-01-25 09:33:00,
2013-01-25 04:38:00,13.5,7.5,30.49,SSE,162,1.0,4.0,76,0.00,,OVC OVC///CB,0.00,WUHU216DAVISVP2,2013-01-25 09:38:00,
2013-01-25 04:43:00,13.5,7.8,30.48,SSE,152,2.0,4.0,77,0.00,,OVC OVC///CB,0.00,WUHU216DAVISVP2,2013-01-25 09:43:00,
2013-01-25 04:48:00,13.5,7.8,30.47,SSE,158,1.0,4.0,77,0.00,,OVC OVC///CB,0.00,WUHU216DAVISVP2,2013-01-25 09:48:00,
2013-01-25 04:53:00,13.5,7.8,30.46,SSE,156,2.0,4.0,77,0.00,,OVC OVC///CB,0.00,WUHU216DAVISVP2,2013-01-25 09:53:00,
2013-01-25 04:58:00,13.6,7.9,30.46,SE,139,1.0,4.0,77,0.00,,OVC OVC///CB,0.00,WUHU216DAVISVP2,2013-01-25 09:58:00,
2013-01-25 05:03:00,13.6,7.9,30.46,SE,142,1.0,4.0,77,0.00,,OVC OVC///CB,0.00,WUHU216DAVISVP2,2013-01-25 10:03:00,
2013-01-25 05:08:00,13.6,7.9,30.46,SSE,165,1.0,3.0,77,0.00,,OVC OVC///CB,0.00,WUHU216DAVISVP2,2013-01-25 10:08:00,
2013-01-25 05:13:00,13.6,7.9,30.46,ESE,117,0.0,3.0,77,0.00,,OVC OVC///CB,0.00,WUHU216DAVISVP2,2013-01-25 10:13:00,
2013-01-25 05:18:00,13.6,7.9,30.46,SE,137,0.0,3.0,77,0.00,,OVC OVC///CB,0.00,WUHU216DAVISVP2,2013-01-25 10:18:00,
2013-01-25 05:23:00,13.6,7.9,30.45,SE,143,1.0,3.0,77,0.00,,OVC OVC///CB,0.00,WUHU216DAVISVP2,2013-01-25 10:23:00,
2013-01-25 05:28:00,13.6,8.1,30.45,SE,142,1.0,3.0,78,0.00,,OVC OVC///CB,0.00,WUHU216DAVISVP2,2013-01-25 10:28:00,
2013-01-25 05:33:00,13.7,8.2,30.44,South,177,0.0,2.0,78,0.00,,OVC OVC///CB,0.00,WUHU216DAVISVP2,2013-01-25 10:33:00,
2013-01-25 05:38:00,13.7,8.2,30.43,East,101,3.0,6.0,78,0.00,,OVC OVC///CB,0.00,WUHU216DAVISVP2,2013-01-25 10:38:00,
2013-01-25 05:43:00,13.6,7.6,30.42,SE,139,2.0,6.0,76,0.00,,OVC OVC///CB,0.00,WUHU216DAVISVP2,2013-01-25 10:43:00,
2013-01-25 05:48:00,13.6,7.6,30.41,East,94,1.0,5.0,76,0.00,,OVC OVC///CB,0.00,WUHU216DAVISVP2,2013-01-25 10:48:00,
2013-01-25 05:53:00,13.7,8.0,30.41,ESE,105,1.0,5.0,77,0.00,,OVC OVC///CB,0.00,WUHU216DAVISVP2,2013-01-25 10:53:00,
2013-01-25 05:58:00,13.6,7.3,30.41,ESE,117,3.0,6.0,75,0.00,,OVC OVC///CB,0.00,WUHU216DAVISVP2,2013-01-25 10:58:00,
2013-01-25 06:03:00,13.6,7.3,30.41,ESE,105,0.0,6.0,75,0.00,,OVC OVC///CB,0.00,WUHU216DAVISVP2,2013-01-25 11:03:00,
2013-01-25 06:08:00,13.6,7.6,30.41,ESE,118,2.0,6.0,76,0.00,,OVC OVC///CB,0.00,WUHU216DAVISVP2,2013-01-25 11:08:00,
2013-01-25 06:13:00,13.6,7.6,30.39,ESE,108,5.0,6.0,76,0.00,,OVC OVC///CB,0.00,WUHU216DAVISVP2,2013-01-25 11:13:00,
2013-01-25 06:18:00,13.6,7.6,30.39,ESE,120,3.0,5.0,76,0.00,,OVC OVC///CB,0.00,WUHU216DAVISVP2,2013-01-25 11:18:00,
2013-01-25 06:23:00,13.6,7.3,30.38,East,96,2.0,7.0,75,0.00,,OVC OVC///CB,0.00,WUHU216DAVISVP2,2013-01-25 11:23:00,
2013-01-25 06:28:00,13.6,7.3,30.38,SE,139,2.0,8.0,75,0.00,,OVC OVC///CB,0.00,WUHU216DAVISVP2,2013-01-25 11:28:00,
2013-01-25 06:33:00,13.6,7.3,30.37,SE,134,3.0,10.0,75,0.00,,OVC OVC///CB,0.00,WUHU216DAVISVP2,2013-01-25 11:33:00,
2013-01-25 06:38:00,13.6,7.6,30.37,SE,126,3.0,10.0,76,0.00,,OVC OVC///CB,0.00,WUHU216DAVISVP2,2013-01-25 11:38:00,
2013-01-25 06:43:00,13.6,7.3,30.37,ESE,113,7.0,9.0,75,0.00,,OVC OVC///CB,0.00,WUHU216DAVISVP2,2013-01-25 11:43:00,
2013-01-25 06:48:00,13.6,7.6,30.36,ESE,117,7.0,9.0,76,0.00,,OVC OVC///CB,0.00,WUHU216DAVISVP2,2013-01-25 11:48:00,
2013-01-25 06:53:00,13.6,7.3,30.36,ESE,121,4.0,8.0,75,0.00,,OVC OVC///CB,0.00,WUHU216DAVISVP2,2013-01-25 11:53:00,
2013-01-25 06:58:00,13.6,7.3,30.36,ESE,115,2.0,7.0,75,0.00,,OVC OVC///CB,0.00,WUHU216DAVISVP2,2013-01-25 11:58:00,
2013-01-25 07:03:00,13.7,7.4,30.35,East,100,3.0,7.0,75,0.00,,OVC OVC///CB,0.00,WUHU216DAVISVP2,2013-01-25 12:03:00,
2013-01-25 07:08:00,13.7,7.4,30.35,ESE,113,2.0,6.0,75,0.00,,OVC OVC///CB,0.00,WUHU216DAVISVP2,2013-01-25 12:08:00,
2013-01-25 07:13:00,13.7,7.1,30.35,ESE,118,3.0,7.0,74,0.00,,OVC OVC///CB,0.00,WUHU216DAVISVP2,2013-01-25 12:13:00,
2013-01-25 07:18:00,13.7,7.4,30.34,East,81,4.0,8.0,75,0.00,,OVC OVC///CB,0.00,WUHU216DAVISVP2,2013-01-25 12:18:00,
2013-01-25 07:23:00,13.6,7.3,30.33,ESE,122,4.0,9.0,75,0.00,,OVC OVC///CB,0.00,WUHU216DAVISVP2,2013-01-25 12:23:00,
2013-01-25 07:28:00,13.6,7.3,30.33,East,97,3.0,9.0,75,0.00,,OVC OVC///CB,0.00,WUHU216DAVISVP2,2013-01-25 12:28:00,
2013-01-25 07:33:00,13.6,7.0,30.33,SE,145,7.0,11.0,74,0.00,,OVC OVC///CB,0.00,WUHU216DAVISVP2,2013-01-25 12:33:00,
2013-01-25 07:38:00,13.6,7.0,30.33,East,101,1.0,11.0,74,0.00,,OVC OVC///CB,0.00,WUHU216DAVISVP2,2013-01-25 12:38:00,
2013-01-25 07:43:00,13.6,7.0,30.32,SE,143,2.0,11.0,74,0.00,,OVC OVC///CB,0.00,WUHU216DAVISVP2,2013-01-25 12:43:00,
2013-01-25 07:48:00,13.7,7.4,30.32,SE,138,1.0,10.0,75,0.00,,OVC OVC///CB,0.00,WUHU216DAVISVP2,2013-01-25 12:48:00,
2013-01-25 07:53:00,13.7,7.1,30.32,SSE,156,3.0,9.0,74,0.00,,OVC OVC///CB,0.00,WUHU216DAVISVP2,2013-01-25 12:53:00,
2013-01-25 07:58:00,13.7,6.8,30.32,SE,134,4.0,9.0,73,0.00,,OVC OVC///CB,0.00,WUHU216DAVISVP2,2013-01-25 12:58:00,
2013-01-25 08:03:00,13.7,7.1,30.32,SE,128,4.0,7.0,74,0.00,,OVC OVC///CB,0.00,WUHU216DAVISVP2,2013-01-25 13:03:00,
2013-01-25 08:08:00,13.7,7.1,30.31,SE,132,3.0,8.0,74,0.00,,OVC OVC///CB,0.00,WUHU216DAVISVP2,2013-01-25 13:08:00,
2013-01-25 08:13:00,13.8,7.2,30.31,SSE,152,1.0,8.0,74,0.00,,OVC OVC///CB,0.00,WUHU216DAVISVP2,2013-01-25 13:13:00,
2013-01-25 08:18:00,13.9,7.3,30.31,SE,143,2.0,8.0,74,0.00,,OVC OVC///CB,0.00,WUHU216DAVISVP2,2013-01-25 13:18:00,
2013-01-25 08:23:00,14.0,7.4,30.31,SE,129,1.0,8.0,74,0.00,,OVC OVC///CB,0.00,WUHU216DAVISVP2,2013-01-25 13:23:00,
2013-01-25 08:28:00,14.0,7.4,30.32,SE,146,3.0,4.0,74,0.00,,OVC OVC///CB,0.00,WUHU216DAVISVP2,2013-01-25 13:28:00,
2013-01-25 08:33:00,14.0,7.4,30.32,SE,132,2.0,6.0,74,0.00,,OVC OVC///CB,0.00,WUHU216DAVISVP2,2013-01-25 13:33:00,
2013-01-25 08:38:00,14.1,7.8,30.32,ESE,116,3.0,6.0,75,0.00,,OVC OVC///CB,0.00,WUHU216DAVISVP2,2013-01-25 13:38:00,
2013-01-25 08:43:00,14.1,7.5,30.32,South,191,5.0,8.0,74,0.00,,OVC OVC///CB,0.00,WUHU216DAVISVP2,2013-01-25 13:43:00,
2013-01-25 08:48:00,13.9,7.3,30.32,SE,142,2.0,8.0,74,0.00,,OVC OVC///CB,0.00,WUHU216DAVISVP2,2013-01-25 13:48:00,
2013-01-25 08:53:00,13.9,7.9,30.32,East,96,2.0,7.0,76,0.00,,OVC OVC///CB,0.00,WUHU216DAVISVP2,2013-01-25 13:53:00,
2013-01-25 08:58:00,13.9,7.9,30.33,South,172,3.0,7.0,76,0.00,,OVC OVC///CB,0.00,WUHU216DAVISVP2,2013-01-25 13:58:00,
2013-01-25 09:03:00,13.9,8.1,30.33,SE,129,3.0,7.0,77,0.00,,OVC OVC///CB,0.00,WUHU216DAVISVP2,2013-01-25 14:03:00,
2013-01-25 09:08:00,13.9,8.4,30.33,South,177,1.0,7.0,78,0.00,,OVC OVC///CB,0.00,WUHU216DAVISVP2,2013-01-25 14:08:00,
2013-01-25 09:13:00,13.9,8.4,30.33,SSE,152,2.0,7.0,78,0.00,,OVC OVC///CB,0.00,WUHU216DAVISVP2,2013-01-25 14:13:00,
2013-01-25 09:18:00,14.0,8.8,30.32,SE,142,3.0,6.0,79,0.00,,OVC OVC///CB,0.00,WUHU216DAVISVP2,2013-01-25 14:18:00,
2013-01-25 09:23:00,13.8,8.6,30.32,SE,139,3.0,6.0,79,0.00,,OVC OVC///CB,0.00,WUHU216DAVISVP2,2013-01-25 14:23:00,
2013-01-25 09:28:00,13.8,9.1,30.32,SE,138,1.0,6.0,81,0.00,,OVC OVC///CB,0.00,WUHU216DAVISVP2,2013-01-25 14:28:00,
2013-01-25 09:33:00,13.7,9.6,30.31,SE,129,2.0,6.0,83,0.00,,OVC OVC///CB,0.00,WUHU216DAVISVP2,2013-01-25 14:33:00,
2013-01-25 09:38:00,13.5,10.2,30.31,SSE,162,2.0,6.0,86,0.00,,OVC OVC///CB,0.00,WUHU216DAVISVP2,2013-01-25 14:38:00,
2013-01-25 09:43:00,13.2,10.1,30.30,SE,133,2.0,6.0,87,0.00,,OVC OVC///CB,0.00,WUHU216DAVISVP2,2013-01-25 14:43:00,
2013-01-25 09:48:00,13.1,10.5,30.29,ESE,115,2.0,6.0,89,0.00,,OVC OVC///CB,0.00,WUHU216DAVISVP2,2013-01-25 14:48:00,
2013-01-25 09:53:00,12.9,10.6,30.29,ESE,118,3.0,5.0,90,0.00,,OVC OVC///CB,0.00,WUHU216DAVISVP2,2013-01-25 14:53:00,
2013-01-25 09:58:00,12.9,10.6,30.28,SSE,157,2.0,5.0,90,0.00,,OVC OVC///CB,0.00,WUHU216DAVISVP2,2013-01-25 14:58:00,
2013-01-25 10:03:00,13.0,10.7,30.28,SE,127,0.0,5.0,90,0.00,,OVC OVC///CB,0.00,WUHU216DAVISVP2,2013-01-25 15:03:00,
2013-01-25 10:08:00,12.9,10.6,30.28,SE,126,3.0,7.0,90,0.00,,OVC OVC///CB,0.00,WUHU216DAVISVP2,2013-01-25 15:08:00,
2013-01-25 10:13:00,12.9,10.6,30.27,ESE,121,4.0,8.0,90,0.00,,OVC OVC///CB,0.00,WUHU216DAVISVP2,2013-01-25 15:13:00,
2013-01-25 10:18:00,12.9,10.8,30.27,ESE,122,5.0,8.0,91,0.00,,OVC OVC///CB,0.00,WUHU216DAVISVP2,2013-01-25 15:18:00,
2013-01-25 10:23:00,12.9,10.6,30.27,ESE,111,1.0,8.0,90,0.00,,OVC OVC///CB,0.00,WUHU216DAVISVP2,2013-01-25 15:23:00,
2013-01-25 10:28:00,12.9,10.8,30.27,ESE,114,3.0,11.0,91,0.00,,OVC OVC///CB,0.00,WUHU216DAVISVP2,2013-01-25 15:28:00,
2013-01-25 10:33:00,12.9,10.8,30.26,East,100,3.0,11.0,91,0.00,,OVC OVC///CB,0.00,WUHU216DAVISVP2,2013-01-25 15:33:00,
2013-01-25 10:38:00,12.8,10.7,30.26,ENE,72,4.0,10.0,91,0.00,,OVC OVC///CB,0.00,WUHU216DAVISVP2,2013-01-25 15:38:00,
2013-01-25 10:44:00,12.8,10.7,30.25,SE,130,3.0,11.0,91,0.00,,OVC OVC///CB,0.00,WUHU216DAVISVP2,2013-01-25 15:44:00,
2013-01-25 10:49:00,12.8,10.7,30.25,SE,128,4.0,11.0,91,0.00,,OVC OVC///CB,0.00,WUHU216DAVISVP2,2013-01-25 15:49:00,
2013-01-25 10:54:00,12.8,10.7,30.25,ESE,109,5.0,9.0,91,0.00,,OVC OVC///CB,0.00,WUHU216DAVISVP2,2013-01-25 15:54:00,
2013-01-25 10:59:00,12.8,10.7,30.24,ESE,105,5.0,9.0,91,0.00,,OVC OVC///CB,0.00,WUHU216DAVISVP2,2013-01-25 15:59:00,
2013-01-25 11:04:00,12.9,10.8,30.24,ESE,111,5.0,9.0,91,0.00,,OVC OVC///CB,0.00,WUHU216DAVISVP2,2013-01-25 16:04:00,
2013-01-25 11:09:00,13.0,11.2,30.23,SE,127,1.0,8.0,92,0.00,,OVC OVC///CB,0.00,WUHU216DAVISVP2,2013-01-25 16:09:00,
2013-01-25 11:14:00,13.1,11.3,30.24,ESE,123,3.0,7.0,92,0.00,,OVC OVC///CB,0.00,WUHU216DAVISVP2,2013-01-25 16:14:00,
2013-01-25 11:19:00,13.1,11.0,30.24,SE,133,2.0,7.0,91,0.00,,OVC OVC///CB,0.00,WUHU216DAVISVP2,2013-01-25 16:19:00,
2013-01-25 11:24:00,13.2,11.1,30.24,ESE,117,1.0,7.0,91,0.00,,OVC OVC///CB,0.00,WUHU216DAVISVP2,2013-01-25 16:24:00,
2013-01-25 11:29:00,13.4,11.6,30.24,SE,146,1.0,6.0,92,0.00,,OVC OVC///CB,0.00,WUHU216DAVISVP2,2013-01-25 16:29:00,
2013-01-25 11:34:00,13.7,11.9,30.24,SSE,147,3.0,6.0,92,0.00,,OVC OVC///CB,0.00,WUHU216DAVISVP2,2013-01-25 16:34:00,
2013-01-25 11:39:00,13.5,11.2,30.23,ESE,120,5.0,9.0,90,0.00,,OVC OVC///CB,0.00,WUHU216DAVISVP2,2013-01-25 16:39:00,
2013-01-25 11:44:00,13.4,11.1,30.23,ESE,115,2.0,9.0,90,0.00,,OVC OVC///CB,0.00,WUHU216DAVISVP2,2013-01-25 16:44:00,
2013-01-25 11:49:00,13.4,11.1,30.23,East,98,2.0,8.0,90,0.00,,OVC OVC///CB,0.00,WUHU216DAVISVP2,2013-01-25 16:49:00,
2013-01-25 11:54:00,13.7,11.6,30.22,ESE,123,3.0,8.0,91,0.00,,OVC OVC///CB,0.00,WUHU216DAVISVP2,2013-01-25 16:54:00,
2013-01-25 11:59:00,13.8,11.5,30.22,ESE,120,3.0,7.0,90,0.00,,OVC OVC///CB,0.00,WUHU216DAVISVP2,2013-01-25 16:59:00,
2013-01-25 12:04:00,14.0,11.9,30.21,ESE,111,3.0,7.0,91,0.00,,OVC OVC///CB,0.00,WUHU216DAVISVP2,2013-01-25 17:04:00,
2013-01-25 12:09:00,13.9,11.6,30.21,SE,142,2.0,6.0,90,0.00,,OVC OVC///CB,0.00,WUHU216DAVISVP2,2013-01-25 17:09:00,
2013-01-25 12:14:00,14.1,12.0,30.20,ESE,118,2.0,6.0,91,0.00,,OVC OVC///CB,0.00,WUHU216DAVISVP2,2013-01-25 17:14:00,
2013-01-25 12:19:00,13.9,11.6,30.19,ESE,109,3.0,8.0,90,0.00,,OVC OVC///CB,0.00,WUHU216DAVISVP2,2013-01-25 17:19:00,
2013-01-25 12:24:00,13.9,11.6,30.20,ESE,110,1.0,8.0,90,0.00,,OVC OVC///CB,0.00,WUHU216DAVISVP2,2013-01-25 17:24:00,
2013-01-25 12:29:00,14.0,11.9,30.20,SE,146,1.0,7.0,91,0.00,,OVC OVC///CB,0.00,WUHU216DAVISVP2,2013-01-25 17:29:00,
2013-01-25 12:34:00,14.1,11.8,30.20,ESE,112,2.0,7.0,90,0.00,,OVC OVC///CB,0.00,WUHU216DAVISVP2,2013-01-25 17:34:00,
2013-01-25 12:39:00,14.2,11.9,30.18,ESE,117,2.0,6.0,90,0.00,,OVC OVC///CB,0.00,WUHU216DAVISVP2,2013-01-25 17:39:00,
2013-01-25 12:44:00,14.6,12.3,30.17,East,98,3.0,6.0,90,0.00,,OVC OVC///CB,0.00,WUHU216DAVISVP2,2013-01-25 17:44:00,
2013-01-25 12:49:00,14.7,12.1,30.17,ESE,120,1.0,6.0,89,0.00,,OVC OVC///CB,0.00,WUHU216DAVISVP2,2013-01-25 17:49:00,
2013-01-25 12:54:00,14.6,12.0,30.17,East,86,2.0,6.0,89,0.00,,OVC OVC///CB,0.00,WUHU216DAVISVP2,2013-01-25 17:54:00,
2013-01-25 12:59:00,14.4,11.6,30.16,East,100,2.0,6.0,88,0.00,,OVC OVC///CB,0.00,WUHU216DAVISVP2,2013-01-25 17:59:00,
2013-01-25 13:04:00,14.7,12.1,30.16,East,79,3.0,6.0,89,0.00,,OVC OVC///CB,0.00,WUHU216DAVISVP2,2013-01-25 18:04:00,
2013-01-25 13:09:00,14.8,12.2,30.16,East,97,0.0,5.0,89,0.00,,OVC OVC///CB,0.00,WUHU216DAVISVP2,2013-01-25 18:09:00,
2013-01-25 13:14:00,14.7,11.9,30.16,ENE,78,6.0,7.0,88,0.00,,OVC OVC///CB,0.00,WUHU216DAVISVP2,2013-01-25 18:14:00,
2013-01-25 13:19:00,14.5,11.9,30.15,East,87,6.0,7.0,89,0.00,,OVC OVC///CB,0.00,WUHU216DAVISVP2,2013-01-25 18:19:00,
2013-01-25 13:24:00,14.7,12.1,30.15,ESE,108,3.0,7.0,89,0.00,,OVC OVC///CB,0.00,WUHU216DAVISVP2,2013-01-25 18:24:00,
2013-01-25 13:29:00,14.8,12.2,30.15,ESE,110,3.0,7.0,89,0.00,,OVC OVC///CB,0.00,WUHU216DAVISVP2,2013-01-25 18:29:00,
2013-01-25 13:34:00,14.9,12.3,30.14,ENE,78,6.0,7.0,89,0.00,,OVC OVC///CB,0.00,WUHU216DAVISVP2,2013-01-25 18:34:00,
2013-01-25 13:39:00,14.8,11.9,30.14,ENE,63,3.0,7.0,88,0.00,,OVC OVC///CB,0.00,WUHU216DAVISVP2,2013-01-25 18:39:00,
2013-01-25 13:44:00,14.8,11.9,30.14,ESE,111,3.0,7.0,88,0.00,,OVC OVC///CB,0.00,WUHU216DAVISVP2,2013-01-25 18:44:00,
2013-01-25 13:49:00,14.9,12.3,30.14,ESE,115,5.0,6.0,89,0.00,,OVC OVC///CB,0.00,WUHU216DAVISVP2,2013-01-25 18:49:00,
2013-01-25 13:54:00,15.1,12.5,30.14,SE,138,1.0,6.0,89,0.00,,OVC OVC///CB,0.00,WUHU216DAVISVP2,2013-01-25 18:54:00,
2013-01-25 13:59:00,15.5,13.1,30.14,East,82,3.0,5.0,90,0.00,,OVC OVC///CB,0.00,WUHU216DAVISVP2,2013-01-25 18:59:00,
2013-01-25 14:04:00,15.6,13.0,30.14,ESE,104,2.0,5.0,89,0.00,,OVC OVC///CB,0.00,WUHU216DAVISVP2,2013-01-25 19:04:00,
2013-01-25 14:09:00,15.7,13.1,30.14,East,99,1.0,5.0,89,0.00,,OVC OVC///CB,0.00,WUHU216DAVISVP2,2013-01-25 19:09:00,
2013-01-25 14:14:00,16.1,13.5,30.14,SSE,157,0.0,3.0,89,0.00,,OVC OVC///CB,0.00,WUHU216DAVISVP2,2013-01-25 19:14:00,
2013-01-25 14:19:00,16.1,13.2,30.13,ESE,108,3.0,5.0,88,0.00,,OVC OVC///CB,0.00,WUHU216DAVISVP2,2013-01-25 19:19:00,
2013-01-25 14:24:00,16.1,13.2,30.12,ESE,111,4.0,5.0,88,0.00,,OVC OVC///CB,0.00,WUHU216DAVISVP2,2013-01-25 19:24:00,
2013-01-25 14:29:00,16.3,13.4,30.12,SE,125,1.0,6.0,88,0.00,,OVC OVC///CB,0.00,WUHU216DAVISVP2,2013-01-25 19:29:00,
2013-01-25 14:34:00,16.4,13.5,30.12,ESE,117,1.0,6.0,88,0.00,,OVC OVC///CB,0.00,WUHU216DAVISVP2,2013-01-25 19:34:00,
2013-01-25 14:39:00,16.7,13.8,30.11,East,91,4.0,5.0,88,0.00,,OVC OVC///CB,0.00,WUHU216DAVISVP2,2013-01-25 19:39:00,
2013-01-25 14:44:00,16.8,13.9,30.11,SSW,204,1.0,5.0,88,0.00,,OVC OVC///CB,0.00,WUHU216DAVISVP2,2013-01-25 19:44:00,
2013-01-25 14:49:00,17.7,14.8,30.12,SW,228,0.0,5.0,88,0.00,,OVC OVC///CB,0.00,WUHU216DAVISVP2,2013-01-25 19:49:00,
2013-01-25 14:54:00,18.2,14.5,30.12,SE,125,1.0,4.0,85,0.00,,OVC OVC///CB,0.00,WUHU216DAVISVP2,2013-01-25 19:54:00,
2013-01-25 14:59:00,17.9,14.2,30.12,ENE,60,0.0,4.0,85,0.00,,OVC OVC///CB,0.00,WUHU216DAVISVP2,2013-01-25 19:59:00,
2013-01-25 15:04:00,17.9,14.5,30.11,SE,143,0.0,3.0,86,0.00,,OVC OVC///CB,0.00,WUHU216DAVISVP2,2013-01-25 20:04:00,
2013-01-25 15:09:00,18.3,14.6,30.11,ESE,105,0.0,4.0,85,0.00,,OVC OVC///CB,0.00,WUHU216DAVISVP2,2013-01-25 20:09:00,
2013-01-25 15:14:00,18.0,14.1,30.10,East,88,0.0,5.0,84,0.00,,OVC OVC///CB,0.00,WUHU216DAVISVP2,2013-01-25 20:14:00,
2013-01-25 15:19:00,17.9,14.2,30.10,East,86,1.0,5.0,85,0.00,,OVC OVC///CB,0.00,WUHU216DAVISVP2,2013-01-25 20:19:00,
2013-01-25 15:24:00,17.7,14.3,30.10,SE,142,0.0,5.0,86,0.00,,OVC OVC///CB,0.00,WUHU216DAVISVP2,2013-01-25 20:24:00,
2013-01-25 15:29:00,17.5,13.8,30.10,SSE,155,1.0,6.0,85,0.00,,OVC OVC///CB,0.00,WUHU216DAVISVP2,2013-01-25 20:29:00,
2013-01-25 15:34:00,17.5,14.1,30.10,East,98,2.0,6.0,86,0.00,,OVC OVC///CB,0.00,WUHU216DAVISVP2,2013-01-25 20:34:00,
2013-01-25 15:39:00,17.6,14.2,30.10,SE,128,2.0,5.0,86,0.00,,OVC OVC///CB,0.00,WUHU216DAVISVP2,2013-01-25 20:39:00,
2013-01-25 15:44:00,18.2,14.8,30.10,South,172,1.0,5.0,86,0.00,,OVC OVC///CB,0.00,WUHU216DAVISVP2,2013-01-25 20:44:00,
2013-01-25 15:49:00,18.2,14.3,30.10,SSE,162,0.0,3.0,84,0.00,,OVC OVC///CB,0.00,WUHU216DAVISVP2,2013-01-25 20:49:00,
2013-01-25 15:54:00,18.5,14.6,30.10,SSW,201,1.0,2.0,84,0.00,,OVC OVC///CB,0.00,WUHU216DAVISVP2,2013-01-25 20:54:00,
2013-01-25 15:59:00,18.6,14.7,30.09,ESE,108,1.0,2.0,84,0.00,,OVC OVC///CB,0.00,WUHU216DAVISVP2,2013-01-25 20:59:00,
2013-01-25 16:04:00,18.4,14.2,30.09,ESE,108,3.0,3.0,83,0.00,,OVC OVC///CB,0.00,WUHU216DAVISVP2,2013-01-25 21:04:00,
2013-01-25 16:09:00,18.1,14.2,30.09,SSE,155,0.0,3.0,84,0.00,,OVC OVC///CB,0.00,WUHU216DAVISVP2,2013-01-25 21:09:00,
2013-01-25 16:14:00,18.3,14.4,30.09,ESE,118,0.0,3.0,84,0.00,,OVC OVC///CB,0.00,WUHU216DAVISVP2,2013-01-25 21:14:00,
2013-01-25 16:19:00,18.1,14.2,30.09,South,173,0.0,3.0,84,0.00,,OVC OVC///CB,0.00,WUHU216DAVISVP2,2013-01-25 21:19:00,
2013-01-25 16:24:00,18.2,14.3,30.09,SE,145,0.0,3.0,84,0.00,,OVC OVC///CB,0.00,WUHU216DAVISVP2,2013-01-25 21:24:00,
2013-01-25 16:29:00,18.2,14.3,30.09,ESE,121,0.0,2.0,84,0.00,,OVC OVC///CB,0.00,WUHU216DAVISVP2,2013-01-25 21:29:00,
2013-01-25 16:34:00,18.3,14.4,30.09,SSW,201,0.0,2.0,84,0.00,,OVC OVC///CB,0.00,WUHU216DAVISVP2,2013-01-25 21:34:00,
2013-01-25 16:39:00,18.2,14.3,30.09,SSE,152,1.0,2.0,84,0.00,,OVC OVC///CB,0.00,WUHU216DAVISVP2,2013-01-25 21:39:00,
2013-01-25 16:44:00,18.1,14.2,30.09,ESE,118,0.0,2.0,84,0.00,,OVC OVC///CB,0.00,WUHU216DAVISVP2,2013-01-25 21:44:00,
2013-01-25 16:49:00,17.9,13.7,30.09,SSW,207,2.0,3.0,83,0.00,,OVC OVC///CB,0.00,WUHU216DAVISVP2,2013-01-25 21:49:00,
2013-01-25 16:54:00,17.8,13.9,30.09,SE,139,1.0,3.0,84,0.00,,OVC OVC///CB,0.00,WUHU216DAVISVP2,2013-01-25 21:54:00,
2013-01-25 16:59:00,17.7,14.0,30.09,SSE,148,0.0,3.0,85,0.00,,OVC OVC///CB,0.00,WUHU216DAVISVP2,2013-01-25 21:59:00,
2013-01-25 17:04:00,17.6,13.9,30.09,SE,132,0.0,3.0,85,0.00,,OVC OVC///CB,0.00,WUHU216DAVISVP2,2013-01-25 22:04:00,
2013-01-25 17:09:00,17.6,14.2,30.09,SE,132,0.0,2.0,86,0.00,,OVC OVC///CB,0.00,WUHU216DAVISVP2,2013-01-25 22:09:00,
2013-01-25 17:14:00,17.6,14.2,30.09,SW,229,0.0,2.0,86,0.00,,OVC OVC///CB,0.00,WUHU216DAVISVP2,2013-01-25 22:14:00,
2013-01-25 17:19:00,17.5,14.1,30.09,SW,217,0.0,2.0,86,0.00,,OVC OVC///CB,0.00,WUHU216DAVISVP2,2013-01-25 22:19:00,
2013-01-25 17:24:00,17.3,13.9,30.10,SW,221,0.0,2.0,86,0.00,,OVC OVC///CB,0.00,WUHU216DAVISVP2,2013-01-25 22:24:00,
2013-01-25 17:29:00,17.2,13.8,30.10,SSW,197,0.0,1.0,86,0.00,,OVC OVC///CB,0.00,WUHU216DAVISVP2,2013-01-25 22:29:00,
2013-01-25 17:35:00,17.1,13.7,30.10,SSW,202,0.0,1.0,86,0.00,,OVC OVC///CB,0.00,WUHU216DAVISVP2,2013-01-25 22:35:00,
2013-01-25 17:40:00,17.1,14.0,30.10,SSW,201,0.0,1.0,87,0.00,,OVC OVC///CB,0.00,WUHU216DAVISVP2,2013-01-25 22:40:00,
2013-01-25 17:45:00,17.1,14.0,30.10,SSW,201,0.0,0.0,87,0.00,,OVC OVC///CB,0.00,WUHU216DAVISVP2,2013-01-25 22:45:00,
2013-01-25 17:50:00,17.1,14.0,30.10,WSW,242,0.0,0.0,87,0.00,,OVC OVC///CB,0.00,WUHU216DAVISVP2,2013-01-25 22:50:00,
2013-01-25 17:55:00,17.0,13.9,30.11,SW,224,0.0,0.0,87,0.00,,OVC OVC///CB,0.00,WUHU216DAVISVP2,2013-01-25 22:55:00,
2013-01-25 18:00:00,17.0,13.9,30.11,SW,224,0.0,0.0,87,0.00,,OVC OVC///CB,0.00,WUHU216DAVISVP2,2013-01-25 23:00:00,
2013-01-25 18:05:00,17.1,14.2,30.11,SW,224,0.0,0.0,88,0.00,,OVC OVC///CB,0.00,WUHU216DAVISVP2,2013-01-25 23:05:00,
2013-01-25 18:10:00,17.1,14.2,30.11,SSW,196,0.0,0.0,88,0.00,,OVC OVC///CB,0.00,WUHU216DAVISVP2,2013-01-25 23:10:00,
2013-01-25 18:15:00,17.1,14.0,30.11,SW,232,1.0,1.0,87,0.00,,OVC OVC///CB,0.00,WUHU216DAVISVP2,2013-01-25 23:15:00,
2013-01-25 18:20:00,17.1,14.0,30.11,SW,232,0.0,1.0,87,0.00,,OVC OVC///CB,0.00,WUHU216DAVISVP2,2013-01-25 23:20:00,
2013-01-25 18:25:00,17.1,14.0,30.11,SSW,205,1.0,2.0,87,0.00,,OVC OVC///CB,0.00,WUHU216DAVISVP2,2013-01-25 23:25:00,
2013-01-25 18:30:00,17.1,14.2,30.11,SW,221,2.0,2.0,88,0.00,,OVC OVC///CB,0.00,WUHU216DAVISVP2,2013-01-25 23:30:00,
2013-01-25 18:35:00,17.0,13.9,30.11,SSW,195,0.0,2.0,87,0.00,,OVC OVC///CB,0.00,WUHU216DAVISVP2,2013-01-25 23:35:00,
2013-01-25 18:40:00,17.0,14.1,30.11,South,188,0.0,2.0,88,0.00,,OVC OVC///CB,0.00,WUHU216DAVISVP2,2013-01-25 23:40:00,
2013-01-25 18:45:00,17.0,14.1,30.11,SSW,204,0.0,2.0,88,0.00,,OVC OVC///CB,0.00,WUHU216DAVISVP2,2013-01-25 23:45:00,
2013-01-25 18:50:00,17.0,14.1,30.10,SE,141,0.0,2.0,88,0.00,,OVC OVC///CB,0.00,WUHU216DAVISVP2,2013-01-25 23:50:00,
2013-01-25 18:55:00,17.0,14.1,30.10,SSW,210,0.0,2.0,88,0.00,,OVC OVC///CB,0.00,WUHU216DAVISVP2,2013-01-25 23:55:00,
2013-01-25 19:00:00,17.0,14.1,30.10,SSW,195,0.0,1.0,88,0.00,,OVC OVC///CB,0.00,WUHU216DAVISVP2,2013-01-26 00:00:00,
2013-01-25 19:05:00,17.0,14.1,30.10,SSW,194,0.0,1.0,88,0.00,,OVC OVC///CB,0.00,WUHU216DAVISVP2,2013-01-26 00:05:00,
2013-01-25 19:10:00,17.1,14.5,30.10,South,190,0.0,1.0,89,0.00,,OVC OVC///CB,0.00,WUHU216DAVISVP2,2013-01-26 00:10:00,
2013-01-25 19:15:00,17.1,14.5,30.10,South,190,1.0,1.0,89,0.00,,OVC OVC///CB,0.00,WUHU216DAVISVP2,2013-01-26 00:15:00,
2013-01-25 19:20:00,17.0,14.1,30.10,SSW,205,0.0,2.0,88,0.00,,OVC OVC///CB,0.00,WUHU216DAVISVP2,2013-01-26 00:20:00,
2013-01-25 19:25:00,17.0,14.4,30.10,SSW,210,0.0,2.0,89,0.00,,OVC OVC///CB,0.00,WUHU216DAVISVP2,2013-01-26 00:25:00,
2013-01-25 19:30:00,17.0,14.4,30.11,South,181,0.0,2.0,89,0.00,,OVC OVC///CB,0.00,WUHU216DAVISVP2,2013-01-26 00:30:00,
2013-01-25 19:35:00,17.0,14.4,30.11,SSW,195,0.0,2.0,89,0.00,,OVC OVC///CB,0.00,WUHU216DAVISVP2,2013-01-26 00:35:00,
2013-01-25 19:40:00,17.0,14.4,30.11,SSW,204,0.0,2.0,89,0.00,,OVC OVC///CB,0.00,WUHU216DAVISVP2,2013-01-26 00:40:00,
2013-01-25 19:45:00,17.0,14.4,30.11,South,191,0.0,2.0,89,0.00,,OVC OVC///CB,0.00,WUHU216DAVISVP2,2013-01-26 00:45:00,
2013-01-25 19:50:00,17.0,14.4,30.11,South,191,1.0,2.0,89,0.00,,OVC OVC///CB,0.00,WUHU216DAVISVP2,2013-01-26 00:50:00,
2013-01-25 19:55:00,17.1,14.5,30.11,SSW,211,0.0,2.0,89,0.00,,OVC OVC///CB,0.00,WUHU216DAVISVP2,2013-01-26 00:55:00,
2013-01-25 20:00:00,17.1,14.5,30.11,SW,229,0.0,2.0,89,0.00,,OVC OVC///CB,0.00,WUHU216DAVISVP2,2013-01-26 01:00:00,
2013-01-25 20:05:00,17.1,14.5,30.11,SW,226,1.0,2.0,89,0.00,,OVC OVC///CB,0.00,WUHU216DAVISVP2,2013-01-26 01:05:00,
2013-01-25 20:10:00,17.1,14.5,30.11,SW,229,0.0,1.0,89,0.00,,OVC OVC///CB,0.00,WUHU216DAVISVP2,2013-01-26 01:10:00,
2013-01-25 20:15:00,17.1,14.5,30.11,SW,228,0.0,1.0,89,0.00,,OVC OVC///CB,0.00,WUHU216DAVISVP2,2013-01-26 01:15:00,
2013-01-25 20:20:00,17.1,14.5,30.11,SSW,203,0.0,2.0,89,0.00,,OVC OVC///CB,0.00,WUHU216DAVISVP2,2013-01-26 01:20:00,
2013-01-25 20:25:00,17.1,14.7,30.11,SSW,208,0.0,2.0,90,0.00,,OVC OVC///CB,0.00,WUHU216DAVISVP2,2013-01-26 01:25:00,
2013-01-25 20:30:00,17.1,14.7,30.11,SW,224,0.0,2.0,90,0.00,,OVC OVC///CB,0.00,WUHU216DAVISVP2,2013-01-26 01:30:00,
2013-01-25 20:35:00,17.1,14.7,30.11,SSW,204,0.0,2.0,90,0.00,,OVC OVC///CB,0.00,WUHU216DAVISVP2,2013-01-26 01:35:00,
2013-01-25 20:40:00,17.1,14.7,30.11,South,170,1.0,1.0,90,0.00,,OVC OVC///CB,0.00,WUHU216DAVISVP2,2013-01-26 01:40:00,
2013-01-25 20:45:00,17.2,14.8,30.11,South,188,0.0,1.0,90,0.00,,OVC OVC///CB,0.00,WUHU216DAVISVP2,2013-01-26 01:45:00,
2013-01-25 20:50:00,17.1,14.7,30.11,SSW,197,0.0,3.0,90,0.00,,OVC OVC///CB,0.00,WUHU216DAVISVP2,2013-01-26 01:50:00,
2013-01-25 20:55:00,17.2,14.8,30.11,SSW,208,0.0,3.0,90,0.00,,OVC OVC///CB,0.00,WUHU216DAVISVP2,2013-01-26 01:55:00,
2013-01-25 21:00:00,17.1,14.7,30.11,SSW,194,3.0,3.0,90,0.00,,OVC OVC///CB,0.00,WUHU216DAVISVP2,2013-01-26 02:00:00,
2013-01-25 21:05:00,17.1,14.7,30.11,SSW,208,0.0,3.0,90,0.00,,OVC OVC///CB,0.00,WUHU216DAVISVP2,2013-01-26 02:05:00,
2013-01-25 21:10:00,17.2,14.8,30.11,SSW,205,0.0,3.0,90,0.00,,OVC OVC///CB,0.00,WUHU216DAVISVP2,2013-01-26 02:10:00,
2013-01-25 21:15:00,17.2,14.8,30.11,SW,214,1.0,3.0,90,0.00,,OVC OVC///CB,0.00,WUHU216DAVISVP2,2013-01-26 02:15:00,
2013-01-25 21:20:00,17.2,14.8,30.12,SW,218,1.0,3.0,90,0.00,,OVC OVC///CB,0.00,WUHU216DAVISVP2,2013-01-26 02:20:00,
2013-01-25 21:25:00,17.2,14.8,30.12,WSW,246,3.0,3.0,90,0.00,,OVC OVC///CB,0.00,WUHU216DAVISVP2,2013-01-26 02:25:00,
2013-01-25 21:30:00,17.3,14.9,30.13,SW,228,2.0,4.0,90,0.00,,OVC OVC///CB,0.00,WUHU216DAVISVP2,2013-01-26 02:30:00,
2013-01-25 21:35:00,17.3,14.9,30.13,WSW,253,1.0,4.0,90,0.00,,OVC OVC///CB,0.00,WUHU216DAVISVP2,2013-01-26 02:35:00,
2013-01-25 21:40:00,17.3,14.9,30.13,WSW,238,2.0,5.0,90,0.00,,OVC OVC///CB,0.00,WUHU216DAVISVP2,2013-01-26 02:40:00,
2013-01-25 21:45:00,17.3,14.9,30.13,WSW,249,0.0,5.0,90,0.00,,OVC OVC///CB,0.00,WUHU216DAVISVP2,2013-01-26 02:45:00,
2013-01-25 21:50:00,17.3,15.2,30.14,SW,215,0.0,4.0,91,0.00,,OVC OVC///CB,0.00,WUHU216DAVISVP2,2013-01-26 02:50:00,
2013-01-25 21:55:00,17.4,15.3,30.14,WSW,239,1.0,4.0,91,0.00,,OVC OVC///CB,0.00,WUHU216DAVISVP2,2013-01-26 02:55:00,
2013-01-25 22:00:00,17.4,15.3,30.15,WSW,246,4.0,5.0,91,0.00,,OVC OVC///CB,0.00,WUHU216DAVISVP2,2013-01-26 03:00:00,
2013-01-25 22:05:00,17.4,15.3,30.15,SW,232,2.0,7.0,91,0.00,,OVC OVC///CB,0.00,WUHU216DAVISVP2,2013-01-26 03:05:00,
2013-01-25 22:10:00,17.4,15.5,30.15,WSW,244,1.0,7.0,92,0.00,,OVC OVC///CB,0.00,WUHU216DAVISVP2,2013-01-26 03:10:00,
2013-01-25 22:15:00,17.4,15.5,30.15,SSW,211,0.0,6.0,92,0.00,,OVC OVC///CB,0.00,WUHU216DAVISVP2,2013-01-26 03:15:00,
2013-01-25 22:20:00,17.4,15.5,30.15,SSW,210,0.0,6.0,92,0.00,,OVC OVC///CB,0.00,WUHU216DAVISVP2,2013-01-26 03:20:00,
2013-01-25 22:25:00,17.4,15.8,30.15,SW,231,2.0,5.0,93,0.00,,OVC OVC///CB,0.00,WUHU216DAVISVP2,2013-01-26 03:25:00,
2013-01-25 22:30:00,17.4,15.8,30.15,SSW,208,4.0,7.0,93,0.00,,OVC OVC///CB,0.00,WUHU216DAVISVP2,2013-01-26 03:30:00,
2013-01-25 22:35:00,17.5,15.9,30.15,SW,215,4.0,7.0,93,0.00,,OVC OVC///CB,0.00,WUHU216DAVISVP2,2013-01-26 03:35:00,
2013-01-25 22:40:00,17.5,15.9,30.15,WSW,244,3.0,8.0,93,0.00,,OVC OVC///CB,0.00,WUHU216DAVISVP2,2013-01-26 03:40:00,
2013-01-25 22:45:00,17.5,16.1,30.15,SW,231,1.0,8.0,94,0.00,,OVC OVC///CB,0.00,WUHU216DAVISVP2,2013-01-26 03:45:00,
2013-01-25 22:50:00,17.6,16.2,30.14,SW,231,2.0,8.0,94,0.00,,OVC OVC///CB,0.00,WUHU216DAVISVP2,2013-01-26 03:50:00,
2013-01-25 22:55:00,17.6,16.2,30.14,SW,236,4.0,8.0,94,0.00,,OVC OVC///CB,0.00,WUHU216DAVISVP2,2013-01-26 03:55:00,
2013-01-25 23:00:00,17.7,16.3,30.14,SW,226,4.0,6.0,94,0.00,,OVC OVC///CB,0.00,WUHU216DAVISVP2,2013-01-26 04:00:00,
2013-01-25 23:05:00,17.7,16.3,30.14,WSW,242,1.0,7.0,94,0.00,,OVC OVC///CB,0.00,WUHU216DAVISVP2,2013-01-26 04:05:00,
2013-01-25 23:11:00,17.7,16.3,30.14,SW,218,2.0,7.0,94,0.00,,OVC OVC///CB,0.00,WUHU216DAVISVP2,2013-01-26 04:11:00,
2013-01-25 23:16:00,17.7,16.3,30.14,SW,236,3.0,7.0,94,0.00,,OVC OVC///CB,0.00,WUHU216DAVISVP2,2013-01-26 04:16:00,
2013-01-25 23:21:00,17.8,16.4,30.14,SW,232,1.0,6.0,94,0.00,,OVC OVC///CB,0.00,WUHU216DAVISVP2,2013-01-26 04:21:00,
2013-01-25 23:26:00,17.8,16.4,30.14,South,191,3.0,6.0,94,0.00,,OVC OVC///CB,0.00,WUHU216DAVISVP2,2013-01-26 04:26:00,
2013-01-25 23:31:00,17.9,16.5,30.14,SW,221,3.0,7.0,94,0.00,,OVC OVC///CB,0.00,WUHU216DAVISVP2,2013-01-26 04:31:00,
2013-01-25 23:36:00,17.9,16.5,30.14,SW,214,1.0,7.0,94,0.00,,OVC OVC///CB,0.00,WUHU216DAVISVP2,2013-01-26 04:36:00,
2013-01-25 23:41:00,17.9,16.5,30.14,West,263,2.0,6.0,94,0.00,,OVC OVC///CB,0.00,WUHU216DAVISVP2,2013-01-26 04:41:00,
2013-01-25 23:46:00,18.0,16.6,30.14,WSW,242,3.0,6.0,94,0.00,,OVC OVC///CB,0.00,WUHU216DAVISVP2,2013-01-26 04:46:00,
2013-01-25 23:51:00,18.0,16.6,30.14,SW,224,2.0,6.0,94,0.00,,OVC OVC///CB,0.00,WUHU216DAVISVP2,2013-01-26 04:51:00,
2013-01-25 23:56:00,18.0,16.6,30.14,WSW,249,2.0,6.0,94,0.00,,OVC OVC///CB,0.00,WUHU216DAVISVP2,2013-01-26 04:56:00,